createdAt,value
2022-08-11T00:01:47.353Z,101544.59
2022-08-11T00:05:12.350Z,101534.81
2022-08-11T00:08:38.333Z,101529.50
2022-08-11T00:12:09.378Z,101534.94
2022-08-11T00:15:33.399Z,101521.97
2022-08-11T00:19:05.340Z,101521.88
2022-08-11T00:22:35.368Z,101509.59
2022-08-11T00:26:05.323Z,101513.88
2022-08-11T00:29:29.374Z,101504.06
2022-08-11T00:32:54.311Z,101508.19
2022-08-11T00:36:24.914Z,101500.06
2022-08-11T00:39:51.349Z,101491.72
2022-08-11T00:43:34.350Z,101491.38
2022-08-11T00:47:06.361Z,101481.91
2022-08-11T00:51:02.435Z,101474.63
2022-08-11T00:55:00.324Z,101476.06
2022-08-11T00:58:57.967Z,101466.91
2022-08-11T01:02:57.349Z,101460.81
2022-08-11T01:06:38.353Z,101457.25
2022-08-11T01:10:08.300Z,101460.94
2022-08-11T01:13:50.383Z,101453.16
2022-08-11T01:17:51.329Z,101444.78
2022-08-11T01:21:30.351Z,101448.63
2022-08-11T01:25:29.398Z,101439.72
2022-08-11T01:29:49.488Z,101449.53
2022-08-11T01:33:37.410Z,101438.72
2022-08-11T01:37:07.976Z,101433.06
2022-08-11T01:40:49.406Z,101429.66
2022-08-11T01:44:34.359Z,101428.94
2022-08-11T01:48:00.402Z,101423.38
2022-08-11T01:51:32.376Z,101431.00
2022-08-11T01:55:18.374Z,101417.16
2022-08-11T01:58:58.342Z,101416.94
2022-08-11T02:02:56.425Z,101416.84
2022-08-11T02:07:12.394Z,101417.78
2022-08-11T02:11:16.433Z,101408.41
2022-08-11T02:15:05.429Z,101416.22
2022-08-11T02:19:11.371Z,101405.88
2022-08-11T02:24:06.655Z,101409.44
2022-08-11T02:27:23.379Z,101405.13
2022-08-11T02:32:15.426Z,101413.59
2022-08-11T02:35:14.461Z,101411.97
2022-08-11T02:38:44.762Z,101391.44
2022-08-11T02:42:32.649Z,101409.38
2022-08-11T02:46:31.400Z,101414.47
2022-08-11T02:50:38.392Z,101420.34
2022-08-11T02:54:05.383Z,101418.59
2022-08-11T02:57:47.474Z,101409.47
2022-08-11T03:01:19.399Z,101403.78
2022-08-11T03:04:59.442Z,101402.16
2022-08-11T03:08:31.391Z,101400.88
2022-08-11T03:12:33.467Z,101406.06
2022-08-11T03:16:56.412Z,101394.53
2022-08-11T03:20:24.478Z,101394.59
2022-08-11T03:24:22.418Z,101398.72
2022-08-11T03:28:11.455Z,101402.06
2022-08-11T03:31:56.442Z,101401.25
2022-08-11T03:35:21.753Z,101399.44
2022-08-11T03:39:12.477Z,101395.53
2022-08-11T03:42:52.373Z,101405.56
2022-08-11T03:46:42.464Z,101401.19
2022-08-11T03:50:22.420Z,101411.09
2022-08-11T03:54:27.415Z,101418.56
2022-08-11T03:58:24.393Z,101413.28
2022-08-11T04:02:19.423Z,101417.69
2022-08-11T04:06:01.472Z,101413.59
2022-08-11T04:09:59.445Z,101425.22
2022-08-11T04:13:49.516Z,101422.34
2022-08-11T04:18:02.435Z,101431.41
2022-08-11T04:21:50.464Z,101431.03
2022-08-11T04:25:57.599Z,101424.22
2022-08-11T04:30:03.738Z,101437.91
2022-08-11T04:33:36.448Z,101439.78
2022-08-11T04:37:42.466Z,101435.00
2022-08-11T04:41:28.443Z,101436.78
2022-08-11T04:45:26.414Z,101440.22
2022-08-11T04:49:33.991Z,101450.22
2022-08-11T04:53:43.403Z,101452.53
2022-08-11T04:57:26.429Z,101459.78
2022-08-11T05:01:37.289Z,101458.91
2022-08-11T05:05:40.494Z,101466.53
2022-08-11T05:09:59.451Z,101466.66
2022-08-11T05:13:42.462Z,101472.19
2022-08-11T05:17:27.402Z,101466.78
2022-08-11T05:21:44.919Z,101482.00
2022-08-11T05:26:44.735Z,101489.28
2022-08-11T05:30:09.463Z,101488.53
2022-08-11T05:34:24.466Z,101481.16
2022-08-11T05:38:16.476Z,101500.66
2022-08-11T05:42:00.491Z,101499.81
2022-08-11T05:46:03.096Z,101500.19
2022-08-11T05:49:47.436Z,101508.72
2022-08-11T05:53:28.480Z,101526.97
2022-08-11T05:56:59.530Z,101528.88
2022-08-11T06:00:24.485Z,101535.72
2022-08-11T06:04:08.502Z,101547.53
2022-08-11T06:07:48.521Z,101562.63
2022-08-11T06:11:18.534Z,101565.59
2022-08-11T06:15:05.449Z,101568.03
2022-08-11T06:18:29.534Z,101571.75
2022-08-11T06:22:01.436Z,101571.38
2022-08-11T06:25:25.472Z,101578.59
2022-08-11T06:28:55.427Z,101584.69
2022-08-11T06:32:21.536Z,101587.16
2022-08-11T06:36:16.502Z,101594.63
2022-08-11T06:40:06.484Z,101599.81
2022-08-11T06:43:34.088Z,101602.94
2022-08-11T06:46:58.517Z,101601.50
2022-08-11T06:50:40.455Z,101612.13
2022-08-11T06:54:09.478Z,101607.59
2022-08-11T06:57:52.443Z,101602.22
2022-08-11T07:01:25.578Z,101625.38
2022-08-11T07:05:19.503Z,101618.50
2022-08-11T07:09:46.534Z,101622.75
2022-08-11T07:13:44.075Z,101629.78
2022-08-11T07:17:09.553Z,101628.59
2022-08-11T07:20:51.493Z,101649.47
2022-08-11T07:25:01.597Z,101648.66
2022-08-11T07:28:44.535Z,101662.09
2022-08-11T07:32:11.507Z,101672.03
2022-08-11T07:35:47.514Z,101674.16
2022-08-11T07:39:11.536Z,101674.56
2022-08-11T07:42:38.741Z,101680.94
2022-08-11T07:46:15.211Z,101680.78
2022-08-11T07:49:51.496Z,101694.03
2022-08-11T07:53:16.510Z,101670.06
2022-08-11T07:56:55.450Z,101690.09
2022-08-11T08:00:42.539Z,101694.66
2022-08-11T08:04:24.551Z,101691.94
2022-08-11T08:08:06.530Z,101700.88
2022-08-11T08:11:48.534Z,101700.88
2022-08-11T08:15:32.538Z,101701.00
2022-08-11T08:18:57.508Z,101722.31
2022-08-11T08:22:37.870Z,101721.25
2022-08-11T08:26:05.550Z,101725.34
2022-08-11T08:29:47.526Z,101728.06
2022-08-11T08:33:14.520Z,101725.13
2022-08-11T08:36:38.569Z,101731.94
2022-08-11T08:40:02.584Z,101733.81
2022-08-11T08:43:32.511Z,101731.94
2022-08-11T08:47:14.579Z,101731.94
2022-08-11T08:50:59.477Z,101735.19
2022-08-11T08:54:52.508Z,101741.78
2022-08-11T08:58:17.525Z,101742.97
2022-08-11T09:01:45.809Z,101754.06
2022-08-11T09:05:09.470Z,101764.25
2022-08-11T09:08:33.564Z,101757.31
2022-08-11T09:11:58.520Z,101763.44
2022-08-11T09:15:26.570Z,101772.53
2022-08-11T09:18:52.517Z,101768.88
2022-08-11T09:22:45.526Z,101781.72
2022-08-11T09:26:32.518Z,101780.56
2022-08-11T09:29:56.532Z,101774.97
2022-08-11T09:33:20.559Z,101780.19
2022-08-11T09:37:02.524Z,101786.94
2022-08-11T09:40:37.506Z,101775.38
2022-08-11T09:44:19.562Z,101781.13
2022-08-11T09:47:39.274Z,101779.38
2022-08-11T09:51:05.610Z,101789.69
2022-08-11T09:54:31.557Z,101798.56
2022-08-11T09:58:41.907Z,101792.75
2022-08-11T10:02:03.723Z,101805.94
2022-08-11T10:05:48.554Z,101811.19
2022-08-11T10:09:14.530Z,101811.00
2022-08-11T10:12:47.526Z,101820.50
2022-08-11T10:16:15.710Z,101812.22
2022-08-11T10:19:40.518Z,101805.84
2022-08-11T10:23:23.521Z,101797.63
2022-08-11T10:27:02.563Z,101789.50
2022-08-11T10:30:44.540Z,101799.38
2022-08-11T10:34:08.553Z,101796.53
2022-08-11T10:38:07.442Z,101782.69
2022-08-11T10:42:02.797Z,101795.81
2022-08-11T10:45:46.514Z,101802.53
2022-08-11T10:49:11.582Z,101789.09
2022-08-11T10:52:53.552Z,101791.34
2022-08-11T10:56:36.531Z,101786.00
2022-08-11T11:00:02.708Z,101787.56
2022-08-11T11:03:27.603Z,101786.31
2022-08-11T11:07:03.684Z,101783.06
2022-08-11T11:10:26.545Z,101780.97
2022-08-11T11:14:09.547Z,101798.19
2022-08-11T11:18:04.511Z,101801.72
2022-08-11T11:21:34.555Z,101789.31
2022-08-11T11:25:08.667Z,101798.69
2022-08-11T11:29:02.607Z,101801.13
2022-08-11T11:32:39.714Z,101791.63
2022-08-11T11:36:33.575Z,101787.91
2022-08-11T11:39:57.624Z,101795.03
2022-08-11T11:43:21.648Z,101803.78
2022-08-11T11:46:45.519Z,101797.91
2022-08-11T11:50:10.577Z,101799.28
2022-08-11T11:53:34.531Z,101795.63
2022-08-11T11:57:01.578Z,101797.63
2022-08-11T12:00:45.591Z,101790.63
2022-08-11T12:04:10.577Z,101812.66
2022-08-11T12:08:05.000Z,101812.88
2022-08-11T12:11:57.553Z,101799.53
2022-08-11T12:16:04.206Z,101809.41
2022-08-11T12:19:14.583Z,101814.44
2022-08-11T12:22:57.625Z,101818.97
2022-08-11T12:26:39.535Z,101815.91
2022-08-11T12:30:19.584Z,101817.03
2022-08-11T12:33:43.615Z,101808.28
2022-08-11T12:37:13.902Z,101817.00
2022-08-11T12:45:01.566Z,101809.00
2022-08-11T12:48:58.383Z,101818.03
2022-08-11T12:52:34.600Z,101815.22
2022-08-11T12:56:17.627Z,101825.06
2022-08-11T12:59:59.616Z,101814.25
2022-08-11T13:03:44.598Z,101810.44
2022-08-11T13:07:18.638Z,101813.94
2022-08-11T13:11:01.644Z,101809.59
2022-08-11T13:14:25.605Z,101808.28
2022-08-11T13:17:49.574Z,101820.91
2022-08-11T13:21:20.644Z,101807.44
2022-08-11T13:24:45.585Z,101810.78
2022-08-11T13:28:11.574Z,101814.09
2022-08-11T13:31:35.738Z,101818.56
2022-08-11T13:35:00.585Z,101821.25
2022-08-11T13:38:25.646Z,101821.09
2022-08-11T13:41:49.603Z,101822.22
2022-08-11T13:45:15.634Z,101823.41
2022-08-11T13:48:40.654Z,101821.09
2022-08-11T13:52:04.597Z,101821.59
2022-08-11T13:55:51.090Z,101814.56
2022-08-11T13:59:04.821Z,101802.94
2022-08-11T14:02:31.775Z,101806.75
2022-08-11T14:06:04.636Z,101799.78
2022-08-11T14:09:31.567Z,101789.47
2022-08-11T14:13:15.618Z,101803.59
2022-08-11T14:16:49.578Z,101801.44
2022-08-11T14:20:38.199Z,101804.94
2022-08-11T14:24:03.547Z,101793.78
2022-08-11T14:28:30.144Z,101790.09
2022-08-11T14:31:15.762Z,101795.53
2022-08-11T14:34:43.610Z,101783.09
2022-08-11T14:38:07.616Z,101789.59
2022-08-11T14:42:10.512Z,101794.94
2022-08-11T14:45:57.624Z,101792.25
2022-08-11T14:49:22.563Z,101796.09
2022-08-11T14:52:49.634Z,101788.75
2022-08-11T14:56:31.573Z,101778.97
2022-08-11T14:59:58.599Z,101772.34
2022-08-11T15:03:27.984Z,101775.28
2022-08-11T15:06:52.639Z,101779.94
2022-08-11T15:10:21.602Z,101764.84
2022-08-11T15:13:46.657Z,101778.78
2022-08-11T15:17:16.596Z,101779.28
2022-08-11T15:21:06.619Z,101762.31
2022-08-11T15:24:31.598Z,101772.63
2022-08-11T15:28:14.611Z,101768.44
2022-08-11T15:32:00.647Z,101782.88
2022-08-11T15:35:44.617Z,101777.06
2022-08-11T15:39:20.672Z,101765.78
2022-08-11T15:43:05.698Z,101768.09
2022-08-11T15:46:46.609Z,101767.41
2022-08-11T15:50:14.111Z,101766.22
2022-08-11T15:53:56.938Z,101774.41
2022-08-11T15:57:41.791Z,101769.72
2022-08-11T16:01:24.688Z,101784.72
2022-08-11T16:04:50.654Z,101775.75
2022-08-11T16:08:15.625Z,101770.53
2022-08-11T16:11:40.685Z,101772.81
2022-08-11T16:15:26.586Z,101776.97
2022-08-11T16:19:06.623Z,101774.31
2022-08-11T16:23:00.445Z,101774.09
2022-08-11T16:27:11.020Z,101781.91
2022-08-11T16:30:14.664Z,101791.13
2022-08-11T16:33:50.379Z,101782.16
2022-08-11T16:37:33.627Z,101781.78
2022-08-11T16:40:58.661Z,101776.47
2022-08-11T16:44:42.650Z,101773.78
2022-08-11T16:48:37.055Z,101795.59
2022-08-11T16:51:52.646Z,101803.41
2022-08-11T16:55:51.349Z,101794.84
2022-08-11T16:59:17.650Z,101801.38
2022-08-11T17:03:00.661Z,101808.13
2022-08-11T17:06:43.614Z,101800.13
2022-08-11T17:10:31.759Z,101808.44
2022-08-11T17:14:44.632Z,101813.50
2022-08-11T17:18:08.667Z,101806.66
2022-08-11T17:21:38.659Z,101817.28
2022-08-11T17:25:03.665Z,101813.91
2022-08-11T17:28:28.669Z,101816.28
2022-08-11T17:32:10.660Z,101818.56
2022-08-11T17:35:40.627Z,101826.94
2022-08-11T17:39:06.657Z,101821.50
2022-08-11T17:42:48.651Z,101823.66
2022-08-11T17:46:30.648Z,101819.22
2022-08-11T17:49:54.661Z,101833.59
2022-08-11T17:53:36.707Z,101822.72
2022-08-11T17:57:20.474Z,101828.13
2022-08-11T18:00:40.684Z,101835.53
2022-08-11T18:04:04.646Z,101847.31
2022-08-11T18:07:45.688Z,101838.56
2022-08-11T18:12:10.464Z,101849.78
2022-08-11T18:15:31.637Z,101848.41
2022-08-11T18:19:13.895Z,101839.03
2022-08-11T18:23:01.834Z,101840.63
2022-08-11T18:26:42.652Z,101857.06
2022-08-11T18:30:26.884Z,101849.78
2022-08-11T18:34:21.672Z,101841.78
2022-08-11T18:38:09.783Z,101851.50
2022-08-11T18:41:51.708Z,101853.56
2022-08-11T18:45:46.129Z,101856.13
2022-08-11T18:50:01.446Z,101868.75
2022-08-11T18:53:29.656Z,101871.19
2022-08-11T18:57:11.700Z,101878.47
2022-08-11T19:00:52.700Z,101862.50
2022-08-11T19:04:37.813Z,101856.16
2022-08-11T19:08:23.678Z,101866.22
2022-08-11T19:12:06.738Z,101873.78
2022-08-11T19:15:51.655Z,101872.59
2022-08-11T19:19:34.702Z,101888.44
2022-08-11T19:23:18.694Z,101883.25
2022-08-11T19:27:03.662Z,101885.78
2022-08-11T19:30:47.717Z,101890.75
2022-08-11T19:34:30.657Z,101902.53
2022-08-11T19:38:14.825Z,101902.38
2022-08-11T19:41:58.657Z,101899.56
2022-08-11T19:45:40.696Z,101900.50
2022-08-11T19:49:27.669Z,101898.59
2022-08-11T19:53:17.417Z,101894.94
2022-08-11T19:56:59.675Z,101915.56
2022-08-11T20:00:46.692Z,101918.47
2022-08-11T20:04:22.199Z,101925.47
2022-08-11T20:07:59.704Z,101935.16
2022-08-11T20:11:41.673Z,101931.50
2022-08-11T20:15:22.688Z,101916.22
2022-08-11T20:19:05.664Z,101919.72
2022-08-11T20:22:50.710Z,101921.75
2022-08-11T20:26:33.708Z,101929.06
2022-08-11T20:30:16.706Z,101925.91
2022-08-11T20:33:58.691Z,101926.66
2022-08-11T20:37:40.719Z,101936.34
2022-08-11T20:41:22.675Z,101933.78
2022-08-11T20:45:06.716Z,101942.78
2022-08-11T20:48:48.667Z,101942.06
2022-08-11T20:52:31.716Z,101932.03
2022-08-11T20:56:13.721Z,101937.56
2022-08-11T20:59:57.096Z,101927.72
2022-08-11T21:07:34.041Z,101934.44
2022-08-11T21:11:27.767Z,101931.31
2022-08-11T21:15:12.706Z,101945.25
2022-08-11T21:18:56.718Z,101945.09
2022-08-11T21:22:38.743Z,101938.63
2022-08-11T21:26:24.723Z,101938.72
2022-08-11T21:30:08.706Z,101937.81
2022-08-11T21:33:50.721Z,101936.78
2022-08-11T21:37:34.713Z,101931.63
2022-08-11T21:41:20.722Z,101933.75
2022-08-11T21:45:03.689Z,101932.69
2022-08-11T21:48:46.736Z,101932.69
2022-08-11T21:52:29.768Z,101924.44
2022-08-11T21:56:12.743Z,101947.63
2022-08-11T22:00:05.727Z,101950.28
2022-08-11T22:03:50.115Z,101943.78
2022-08-11T22:07:33.744Z,101953.56
2022-08-11T22:11:32.168Z,101955.50
2022-08-11T22:15:14.743Z,101948.88
2022-08-11T22:18:56.891Z,101946.97
2022-08-11T22:22:52.219Z,101959.72
2022-08-11T22:26:39.735Z,101963.84
2022-08-11T22:30:23.824Z,101968.03
2022-08-11T22:34:06.731Z,101964.94
2022-08-11T22:37:48.741Z,101966.34
2022-08-11T22:41:29.715Z,101959.88
2022-08-11T22:45:11.732Z,101960.53
2022-08-11T22:48:53.765Z,101933.03
2022-08-11T22:52:35.759Z,101941.91
2022-08-11T22:56:17.769Z,101935.63
2022-08-11T23:00:12.754Z,101944.41
2022-08-11T23:03:54.777Z,101939.97
2022-08-11T23:07:51.184Z,101940.41
2022-08-11T23:11:55.284Z,101937.09
2022-08-11T23:15:37.746Z,101936.16
2022-08-11T23:20:04.625Z,101916.44
2022-08-11T23:23:26.738Z,101926.78
2022-08-11T23:27:09.802Z,101938.47
2022-08-11T23:30:51.771Z,101934.84
2022-08-11T23:35:02.291Z,101912.44
2022-08-11T23:38:37.771Z,101924.88
2022-08-11T23:42:20.097Z,101917.41
2022-08-11T23:46:01.780Z,101916.81
2022-08-11T23:49:43.782Z,101907.31
2022-08-11T23:53:25.840Z,101899.50
2022-08-11T23:57:07.832Z,101887.56
